Time;durP1;ratioP1;P1;durP2;ratioP2;P2;SDS_P1;SDS_P2;PMS_P1;PMS_P2;Temp;Humidity;BMP_temperature;BMP_pressure;BME280_temperature;BME280_humidity;BME280_pressure;Samples;Min_cycle;Max_cycle;Signal;HPM_P1;HPM_P2
2023/07/02 00:01:40;;;;;;;11.90;6.82;;;;;;;;;;5092621;28;20062;-66
2023/07/02 00:04:08;;;;;;;12.13;7.63;;;;;;;;;;5092143;28;20020;-66
2023/07/02 00:06:40;;;;;;;21.85;8.13;;;;;;;;;;5091985;28;20266;-66
2023/07/02 00:09:05;;;;;;;14.85;7.93;;;;;;;;;;5092144;28;20101;-65
2023/07/02 00:11:30;;;;;;;11.88;7.72;;;;;;;;;;5092855;28;20073;-65
2023/07/02 00:13:56;;;;;;;17.13;7.57;;;;;;;;;;5091175;28;20020;-65
2023/07/02 00:16:21;;;;;;;10.43;7.43;;;;;;;;;;5091770;28;20266;-66
2023/07/02 00:18:52;;;;;;;22.67;8.83;;;;;;;;;;5091950;28;20270;-65
2023/07/02 00:21:19;;;;;;;16.02;9.07;;;;;;;;;;5091833;28;20281;-66
2023/07/02 00:23:44;;;;;;;17.45;9.30;;;;;;;;;;5091791;28;20042;-66
2023/07/02 00:26:09;;;;;;;18.05;9.95;;;;;;;;;;5077890;28;20471;-67
2023/07/02 00:28:34;;;;;;;18.75;8.80;;;;;;;;;;5072156;28;20525;-66
2023/07/02 00:31:01;;;;;;;27.20;10.20;;;;;;;;;;5092020;28;20031;-66
2023/07/02 00:33:26;;;;;;;19.30;9.25;;;;;;;;;;5090803;28;20391;-66
2023/07/02 00:35:51;;;;;;;16.48;9.32;;;;;;;;;;5087443;28;20036;-66
2023/07/02 00:38:16;;;;;;;18.37;11.00;;;;;;;;;;5092011;28;20036;-65
2023/07/02 00:40:41;;;;;;;17.13;9.80;;;;;;;;;;5091688;28;20270;-66
2023/07/02 00:43:12;;;;;;;18.30;9.02;;;;;;;;;;5091724;28;20274;-65
2023/07/02 00:45:41;;;;;;;17.65;10.10;;;;;;;;;;5091444;28;20027;-66
2023/07/02 00:48:06;;;;;;;18.17;11.60;;;;;;;;;;5091724;28;20483;-66
2023/07/02 00:50:31;;;;;;;17.17;10.73;;;;;;;;;;5091098;28;20030;-67
2023/07/02 00:52:57;;;;;;;18.65;10.05;;;;;;;;;;5088486;28;20031;-69
2023/07/02 00:55:22;;;;;;;16.50;10.70;;;;;;;;;;5091574;28;20375;-69
2023/07/02 00:57:47;;;;;;;19.70;11.07;;;;;;;;;;5092015;28;20027;-68
2023/07/02 01:00:13;;;;;;;18.00;10.07;;;;;;;;;;5068580;28;20263;-68
2023/07/02 01:02:43;;;;;;;16.65;11.60;;;;;;;;;;5074954;28;20017;-68
2023/07/02 01:05:09;;;;;;;17.08;11.13;;;;;;;;;;5084433;28;20024;-69
2023/07/02 01:07:34;;;;;;;18.33;11.02;;;;;;;;;;5091108;28;20387;-68
2023/07/02 01:09:59;;;;;;;22.47;11.53;;;;;;;;;;5091318;28;20030;-69
2023/07/02 01:12:24;;;;;;;24.40;12.27;;;;;;;;;;5090740;28;20309;-68
2023/07/02 01:14:54;;;;;;;20.52;12.77;;;;;;;;;;5091607;28;20269;-68
2023/07/02 01:17:20;;;;;;;25.67;12.73;;;;;;;;;;5090954;28;20412;-68
2023/07/02 01:19:45;;;;;;;23.20;12.55;;;;;;;;;;5091554;28;20031;-68
2023/07/02 01:22:11;;;;;;;17.55;12.05;;;;;;;;;;5090657;28;20031;-68
2023/07/02 01:24:38;;;;;;;21.33;12.85;;;;;;;;;;5091541;28;20471;-68
2023/07/02 01:27:03;;;;;;;18.02;12.60;;;;;;;;;;5081583;28;20491;-68
2023/07/02 01:29:30;;;;;;;23.40;13.65;;;;;;;;;;5095007;28;20026;-67
2023/07/02 01:31:56;;;;;;;21.58;11.55;;;;;;;;;;5093818;28;20393;-67
2023/07/02 01:34:21;;;;;;;28.77;15.05;;;;;;;;;;5094735;28;20032;-67
2023/07/02 01:36:46;;;;;;;23.98;13.60;;;;;;;;;;5076231;28;20028;-67
2023/07/02 01:39:12;;;;;;;27.85;13.73;;;;;;;;;;5094896;28;20034;-67
2023/07/02 01:41:41;;;;;;;19.75;13.25;;;;;;;;;;5094583;28;20388;-67
2023/07/02 01:44:07;;;;;;;23.38;14.10;;;;;;;;;;5094998;28;20099;-67
2023/07/02 01:46:32;;;;;;;19.87;14.53;;;;;;;;;;5094089;28;20103;-67
2023/07/02 01:48:57;;;;;;;25.23;15.03;;;;;;;;;;5094519;28;20282;-67
2023/07/02 01:51:22;;;;;;;27.85;14.70;;;;;;;;;;5093215;28;20306;-68
2023/07/02 01:53:48;;;;;;;18.97;14.70;;;;;;;;;;5094044;28;20099;-68
2023/07/02 01:56:13;;;;;;;25.42;14.27;;;;;;;;;;5094202;28;20285;-68
2023/07/02 01:58:38;;;;;;;22.80;14.00;;;;;;;;;;5094534;28;20462;-69
2023/07/02 02:01:03;;;;;;;30.60;14.48;;;;;;;;;;5093823;28;20274;-69
2023/07/02 02:03:28;;;;;;;32.23;16.27;;;;;;;;;;5094594;28;20024;-68
2023/07/02 02:05:54;;;;;;;20.97;14.80;;;;;;;;;;5094299;28;20274;-68
2023/07/02 02:08:19;;;;;;;31.20;15.48;;;;;;;;;;5094507;28;20356;-68
2023/07/02 02:10:44;;;;;;;25.55;16.25;;;;;;;;;;5093510;28;20024;-69
2023/07/02 02:13:09;;;;;;;24.40;16.15;;;;;;;;;;5083745;28;20032;-69
2023/07/02 02:15:35;;;;;;;26.15;16.00;;;;;;;;;;5092782;28;20078;-68
2023/07/02 02:18:00;;;;;;;26.42;15.25;;;;;;;;;;5093861;28;20024;-69
2023/07/02 02:20:25;;;;;;;27.83;15.70;;;;;;;;;;5093904;28;20031;-69
2023/07/02 02:22:50;;;;;;;25.92;15.82;;;;;;;;;;5093349;28;20024;-69
2023/07/02 02:25:16;;;;;;;25.55;15.13;;;;;;;;;;5093741;28;20123;-69
2023/07/02 02:27:43;;;;;;;27.23;16.38;;;;;;;;;;5085090;28;20024;-68
2023/07/02 02:30:08;;;;;;;33.67;16.92;;;;;;;;;;5093390;28;20038;-68
2023/07/02 02:32:33;;;;;;;23.13;16.10;;;;;;;;;;5093484;28;20793;-68
2023/07/02 02:34:59;;;;;;;31.17;16.23;;;;;;;;;;5080470;28;20033;-68
2023/07/02 02:37:24;;;;;;;37.57;18.43;;;;;;;;;;5093183;28;20377;-68
2023/07/02 02:39:50;;;;;;;29.48;17.13;;;;;;;;;;5093930;28;20293;-68
2023/07/02 02:42:15;;;;;;;29.73;18.08;;;;;;;;;;5093766;28;20024;-69
2023/07/02 02:44:40;;;;;;;27.27;17.97;;;;;;;;;;5093688;28;20020;-69
2023/07/02 02:47:05;;;;;;;25.13;17.13;;;;;;;;;;5083027;28;20282;-68
2023/07/02 02:49:31;;;;;;;33.95;18.42;;;;;;;;;;5087138;28;20634;-68
2023/07/02 02:51:56;;;;;;;29.23;18.33;;;;;;;;;;5086078;28;20413;-68
2023/07/02 02:54:22;;;;;;;28.52;16.85;;;;;;;;;;5093019;28;20028;-68
2023/07/02 02:56:47;;;;;;;44.33;19.30;;;;;;;;;;5093458;28;20024;-69
2023/07/02 02:59:12;;;;;;;36.15;18.08;;;;;;;;;;5093466;28;20026;-68
2023/07/02 03:01:38;;;;;;;26.88;18.52;;;;;;;;;;5093451;28;20028;-68
2023/07/02 03:04:03;;;;;;;24.88;18.65;;;;;;;;;;5092837;28;20016;-68
2023/07/02 03:06:30;;;;;;;32.47;17.55;;;;;;;;;;5093550;28;20035;-68
2023/07/02 03:08:55;;;;;;;27.52;18.20;;;;;;;;;;5093143;28;20023;-69
2023/07/02 03:11:20;;;;;;;30.80;17.40;;;;;;;;;;5093548;28;20050;-70
2023/07/02 03:13:45;;;;;;;25.45;17.73;;;;;;;;;;5092925;28;20073;-70
2023/07/02 03:16:11;;;;;;;32.60;20.23;;;;;;;;;;5092452;28;20028;-69
2023/07/02 03:18:36;;;;;;;23.05;16.77;;;;;;;;;;5092592;28;20312;-69
2023/07/02 03:21:01;;;;;;;25.30;17.92;;;;;;;;;;5092231;28;20398;-70
2023/07/02 03:23:26;;;;;;;36.13;19.98;;;;;;;;;;5087620;28;20055;-68
2023/07/02 03:25:52;;;;;;;34.47;19.20;;;;;;;;;;5093043;28;20017;-67
2023/07/02 03:28:17;;;;;;;26.83;18.73;;;;;;;;;;5082417;28;20266;-68
2023/07/02 03:30:42;;;;;;;29.88;18.77;;;;;;;;;;5092158;28;20290;-69
2023/07/02 03:33:08;;;;;;;31.27;19.88;;;;;;;;;;5092140;28;20020;-68
2023/07/02 03:35:34;;;;;;;29.75;20.55;;;;;;;;;;5080484;28;20036;-68
2023/07/02 03:37:59;;;;;;;31.17;20.25;;;;;;;;;;5092785;28;20046;-68
2023/07/02 03:40:24;;;;;;;30.33;19.80;;;;;;;;;;5092830;28;20055;-67
2023/07/02 03:42:49;;;;;;;30.20;20.20;;;;;;;;;;5092335;28;20383;-67
2023/07/02 03:45:14;;;;;;;34.90;18.83;;;;;;;;;;5085655;28;20039;-67
2023/07/02 03:47:40;;;;;;;34.40;19.38;;;;;;;;;;5092232;28;20304;-67
2023/07/02 03:50:05;;;;;;;28.50;18.93;;;;;;;;;;5091329;28;20486;-67
2023/07/02 03:52:30;;;;;;;39.42;20.13;;;;;;;;;;5091157;28;20309;-68
2023/07/02 03:54:56;;;;;;;36.60;19.37;;;;;;;;;;5080688;28;20012;-68
2023/07/02 03:57:21;;;;;;;32.15;20.27;;;;;;;;;;5091678;28;20274;-67
2023/07/02 03:59:46;;;;;;;28.47;20.07;;;;;;;;;;5092640;28;20428;-67
2023/07/02 04:02:11;;;;;;;39.40;20.98;;;;;;;;;;5092005;28;20266;-67
2023/07/02 04:04:37;;;;;;;31.50;20.57;;;;;;;;;;5092547;28;20028;-67
2023/07/02 04:07:02;;;;;;;29.50;19.63;;;;;;;;;;5092352;28;20270;-67
2023/07/02 04:09:28;;;;;;;32.90;20.38;;;;;;;;;;5090731;28;20432;-67
2023/07/02 04:11:53;;;;;;;28.67;19.40;;;;;;;;;;5068347;28;20058;-67
2023/07/02 04:14:18;;;;;;;40.97;21.53;;;;;;;;;;5092321;28;20474;-67
2023/07/02 04:16:44;;;;;;;35.60;21.80;;;;;;;;;;5091596;28;20787;-68
2023/07/02 04:19:10;;;;;;;31.35;21.55;;;;;;;;;;5090019;28;20351;-67
2023/07/02 04:21:35;;;;;;;41.10;21.02;;;;;;;;;;5091580;28;20046;-68
2023/07/02 04:24:00;;;;;;;35.78;20.90;;;;;;;;;;5092387;28;20019;-67
2023/07/02 04:26:26;;;;;;;41.03;21.65;;;;;;;;;;5092074;28;20069;-67
2023/07/02 04:28:51;;;;;;;34.80;20.98;;;;;;;;;;5092279;28;20016;-67
2023/07/02 04:31:17;;;;;;;36.50;20.08;;;;;;;;;;5090097;28;20039;-67
2023/07/02 04:33:42;;;;;;;37.27;21.67;;;;;;;;;;5088397;28;20043;-67
2023/07/02 04:36:08;;;;;;;37.10;22.75;;;;;;;;;;5088310;28;20276;-67
2023/07/02 04:38:33;;;;;;;39.15;22.90;;;;;;;;;;5089762;28;20099;-67
2023/07/02 04:41:05;;;;;;;35.13;20.90;;;;;;;;;;5088585;28;20020;-68
2023/07/02 04:43:31;;;;;;;41.33;24.90;;;;;;;;;;5090925;28;20133;-67
2023/07/02 04:45:56;;;;;;;35.60;22.27;;;;;;;;;;5090577;28;20036;-67
2023/07/02 04:48:21;;;;;;;32.00;22.85;;;;;;;;;;5091971;28;20020;-68
2023/07/02 04:50:46;;;;;;;36.78;22.30;;;;;;;;;;5091936;28;20467;-67
2023/07/02 04:53:12;;;;;;;34.77;21.67;;;;;;;;;;5091442;28;20082;-67
2023/07/02 04:55:37;;;;;;;38.15;23.30;;;;;;;;;;5090721;28;20305;-66
2023/07/02 04:58:02;;;;;;;35.30;23.07;;;;;;;;;;5085596;28;20024;-67
2023/07/02 05:00:27;;;;;;;33.97;23.65;;;;;;;;;;5089343;28;20298;-68
2023/07/02 05:02:53;;;;;;;39.50;24.05;;;;;;;;;;5073587;28;20027;-68
2023/07/02 05:05:18;;;;;;;39.45;23.65;;;;;;;;;;5091552;28;20099;-68
2023/07/02 05:07:43;;;;;;;47.38;25.58;;;;;;;;;;5090743;28;20111;-67
2023/07/02 05:10:09;;;;;;;33.08;23.98;;;;;;;;;;5090398;28;20032;-67
2023/07/02 05:12:34;;;;;;;39.53;22.92;;;;;;;;;;5091687;28;20024;-67
2023/07/02 05:14:59;;;;;;;37.37;25.20;;;;;;;;;;5090839;28;20025;-67
2023/07/02 05:17:25;;;;;;;40.85;24.40;;;;;;;;;;5091427;28;20285;-68
2023/07/02 05:19:50;;;;;;;41.25;23.27;;;;;;;;;;5091575;28;20034;-67
2023/07/02 05:22:15;;;;;;;44.38;25.33;;;;;;;;;;5091062;28;20050;-67
2023/07/02 05:24:41;;;;;;;51.17;23.85;;;;;;;;;;5091430;28;20027;-68
2023/07/02 05:27:06;;;;;;;37.35;23.67;;;;;;;;;;5090809;28;20467;-69
2023/07/02 05:29:31;;;;;;;42.83;23.80;;;;;;;;;;5091196;28;20020;-68
2023/07/02 05:31:57;;;;;;;50.75;25.00;;;;;;;;;;5091205;28;20024;-68
2023/07/02 05:34:22;;;;;;;41.78;25.58;;;;;;;;;;5089206;28;20047;-68
2023/07/02 05:36:47;;;;;;;44.53;24.80;;;;;;;;;;5089255;28;20077;-68
2023/07/02 05:39:12;;;;;;;45.13;26.47;;;;;;;;;;5090574;28;20028;-67
2023/07/02 05:41:38;;;;;;;39.80;24.38;;;;;;;;;;5087087;28;20275;-67
2023/07/02 05:44:03;;;;;;;40.92;24.98;;;;;;;;;;5083463;28;20028;-66
2023/07/02 05:46:28;;;;;;;53.00;26.33;;;;;;;;;;5077444;28;20016;-66
2023/07/02 05:48:57;;;;;;;44.00;25.73;;;;;;;;;;5089931;28;20035;-67
2023/07/02 05:51:25;;;;;;;35.78;25.35;;;;;;;;;;5089941;28;20776;-66
2023/07/02 05:53:51;;;;;;;40.00;25.33;;;;;;;;;;5090442;28;20094;-66
2023/07/02 05:56:16;;;;;;;44.22;25.00;;;;;;;;;;5090757;28;20017;-67
2023/07/02 05:58:42;;;;;;;46.80;27.08;;;;;;;;;;5090087;28;20012;-67
2023/07/02 06:01:07;;;;;;;43.97;25.50;;;;;;;;;;5089202;28;20020;-67
2023/07/02 06:03:32;;;;;;;38.90;23.73;;;;;;;;;;5089928;28;20279;-67
2023/07/02 06:05:57;;;;;;;50.70;26.25;;;;;;;;;;5089061;28;20771;-67
2023/07/02 06:08:23;;;;;;;38.45;25.13;;;;;;;;;;5085028;28;20103;-67
2023/07/02 06:10:48;;;;;;;43.45;25.42;;;;;;;;;;5089622;28;20030;-67
2023/07/02 06:13:13;;;;;;;41.88;24.92;;;;;;;;;;5091710;28;20016;-67
2023/07/02 06:15:39;;;;;;;46.95;26.85;;;;;;;;;;5092741;28;20095;-67
2023/07/02 06:18:04;;;;;;;43.33;26.92;;;;;;;;;;5093870;28;20452;-67
2023/07/02 06:20:29;;;;;;;50.63;27.10;;;;;;;;;;5087818;28;20024;-68
2023/07/02 06:22:54;;;;;;;46.35;26.92;;;;;;;;;;5093135;28;20055;-68
2023/07/02 06:25:20;;;;;;;42.38;26.50;;;;;;;;;;5093362;28;20096;-68
2023/07/02 06:27:45;;;;;;;39.87;25.97;;;;;;;;;;5092668;28;20435;-66
2023/07/02 06:30:10;;;;;;;45.70;26.25;;;;;;;;;;5092613;28;20293;-66
2023/07/02 06:32:37;;;;;;;40.70;24.73;;;;;;;;;;5092373;28;20462;-67
2023/07/02 06:35:02;;;;;;;42.28;24.52;;;;;;;;;;5079522;28;20031;-67
2023/07/02 06:37:27;;;;;;;45.50;25.60;;;;;;;;;;5093074;28;20381;-67
2023/07/02 06:39:53;;;;;;;46.77;25.03;;;;;;;;;;5091859;28;20477;-67
2023/07/02 06:42:18;;;;;;;44.53;26.25;;;;;;;;;;5093271;28;20339;-68
2023/07/02 06:44:43;;;;;;;41.60;26.33;;;;;;;;;;5092708;28;20020;-67
2023/07/02 06:47:09;;;;;;;46.72;25.60;;;;;;;;;;5093539;28;20034;-68
2023/07/02 06:49:34;;;;;;;53.22;27.65;;;;;;;;;;5093115;28;20035;-68
2023/07/02 06:52:00;;;;;;;36.88;25.17;;;;;;;;;;5092554;28;20032;-67
2023/07/02 06:54:26;;;;;;;52.88;27.13;;;;;;;;;;5093028;28;20028;-67
2023/07/02 06:56:51;;;;;;;41.40;24.85;;;;;;;;;;5092215;28;20035;-68
2023/07/02 06:59:20;;;;;;;40.20;25.10;;;;;;;;;;5089011;28;20104;-67
2023/07/02 07:01:45;;;;;;;39.35;26.58;;;;;;;;;;5084287;28;20289;-68
2023/07/02 07:04:10;;;;;;;39.60;26.20;;;;;;;;;;5092596;28;20073;-67
2023/07/02 07:06:37;;;;;;;42.78;25.67;;;;;;;;;;5092440;28;20274;-67
2023/07/02 07:09:02;;;;;;;44.10;25.27;;;;;;;;;;5092455;28;20028;-67
2023/07/02 07:11:27;;;;;;;44.58;24.85;;;;;;;;;;5074916;28;20543;-67
2023/07/02 07:13:53;;;;;;;47.83;26.30;;;;;;;;;;5092536;28;20027;-67
2023/07/02 07:16:18;;;;;;;37.80;24.60;;;;;;;;;;5093003;28;20278;-68
2023/07/02 07:18:44;;;;;;;40.00;23.25;;;;;;;;;;5092427;28;20028;-67
2023/07/02 07:21:09;;;;;;;42.80;26.80;;;;;;;;;;5091851;28;20081;-68
2023/07/02 07:23:34;;;;;;;62.10;27.13;;;;;;;;;;5090711;28;20367;-68
2023/07/02 07:25:59;;;;;;;45.30;26.97;;;;;;;;;;5093191;28;20258;-67
2023/07/02 07:28:24;;;;;;;42.60;25.95;;;;;;;;;;5091477;28;20285;-68
2023/07/02 07:30:50;;;;;;;49.37;27.30;;;;;;;;;;5087112;28;20020;-68
2023/07/02 07:33:15;;;;;;;43.83;25.87;;;;;;;;;;5089048;28;20815;-67
2023/07/02 07:35:40;;;;;;;47.22;25.05;;;;;;;;;;5080987;28;20274;-68
2023/07/02 07:38:06;;;;;;;43.58;25.20;;;;;;;;;;5091516;28;20078;-67
2023/07/02 07:40:31;;;;;;;43.63;27.57;;;;;;;;;;5090144;28;20061;-66
2023/07/02 07:42:56;;;;;;;41.40;25.93;;;;;;;;;;5091498;28;20265;-67
2023/07/02 07:45:21;;;;;;;41.20;25.20;;;;;;;;;;5091325;28;20760;-66
2023/07/02 07:47:46;;;;;;;39.97;25.33;;;;;;;;;;5091331;28;20274;-67
2023/07/02 07:50:12;;;;;;;38.63;26.60;;;;;;;;;;5091222;28;20293;-67
2023/07/02 07:52:38;;;;;;;38.38;25.85;;;;;;;;;;5091885;28;20416;-67
2023/07/02 07:55:03;;;;;;;55.65;26.50;;;;;;;;;;5091305;28;20462;-66
2023/07/02 07:57:28;;;;;;;51.63;26.35;;;;;;;;;;5086972;28;20024;-66
2023/07/02 07:59:54;;;;;;;35.57;24.43;;;;;;;;;;5091086;28;20012;-66
2023/07/02 08:02:19;;;;;;;48.13;24.70;;;;;;;;;;5060314;28;20271;-66
2023/07/02 08:04:44;;;;;;;41.10;23.50;;;;;;;;;;5091180;28;20315;-66
2023/07/02 08:07:09;;;;;;;34.43;22.90;;;;;;;;;;5084123;28;20277;-65
2023/07/02 08:09:34;;;;;;;38.73;22.23;;;;;;;;;;5086987;28;20688;-66
2023/07/02 08:12:00;;;;;;;47.78;23.23;;;;;;;;;;5091250;28;20322;-65
2023/07/02 08:14:25;;;;;;;34.42;22.00;;;;;;;;;;5090985;28;20497;-66
2023/07/02 08:16:51;;;;;;;48.33;25.33;;;;;;;;;;5091964;28;20028;-66
2023/07/02 08:19:16;;;;;;;37.25;23.45;;;;;;;;;;5090628;28;20278;-66
2023/07/02 08:21:41;;;;;;;35.57;23.60;;;;;;;;;;5091577;28;20720;-67
2023/07/02 08:24:07;;;;;;;36.35;21.60;;;;;;;;;;5091454;28;20327;-67
2023/07/02 08:26:32;;;;;;;38.60;22.67;;;;;;;;;;5091438;28;20031;-66
2023/07/02 08:28:57;;;;;;;42.65;23.75;;;;;;;;;;5090064;28;20062;-66
2023/07/02 08:31:23;;;;;;;41.70;23.23;;;;;;;;;;5091093;28;20112;-66
2023/07/02 08:33:48;;;;;;;44.70;25.27;;;;;;;;;;5083999;28;20360;-68
2023/07/02 08:36:13;;;;;;;35.53;22.27;;;;;;;;;;5070756;28;20066;-67
2023/07/02 08:38:41;;;;;;;31.60;22.17;;;;;;;;;;5089984;28;20054;-67
2023/07/02 08:41:07;;;;;;;40.13;23.80;;;;;;;;;;5090690;28;20020;-67
2023/07/02 08:43:32;;;;;;;41.05;25.13;;;;;;;;;;5090142;28;20033;-67
2023/07/02 08:45:57;;;;;;;35.17;23.55;;;;;;;;;;5090417;28;20067;-67
2023/07/02 08:48:24;;;;;;;34.83;21.77;;;;;;;;;;5086766;28;20032;-67
2023/07/02 08:50:49;;;;;;;39.33;23.20;;;;;;;;;;5090921;28;20036;-67
2023/07/02 08:53:15;;;;;;;48.40;27.30;;;;;;;;;;5084949;28;20483;-67
2023/07/02 08:55:40;;;;;;;38.75;23.80;;;;;;;;;;5091111;28;20107;-67
2023/07/02 08:58:05;;;;;;;34.85;24.70;;;;;;;;;;5090959;28;20475;-66
2023/07/02 09:00:35;;;;;;;37.80;23.45;;;;;;;;;;5090773;28;20094;-67
2023/07/02 09:03:10;;;;;;;41.33;21.60;;;;;;;;;;5087169;28;20024;-66
2023/07/02 09:05:35;;;;;;;39.90;23.17;;;;;;;;;;5086832;28;20031;-66
2023/07/02 09:08:00;;;;;;;29.98;19.63;;;;;;;;;;5089971;28;20028;-65
2023/07/02 09:10:28;;;;;;;33.33;20.23;;;;;;;;;;5090420;28;20479;-75
2023/07/02 09:13:07;;;;;;;29.20;16.15;;;;;;;;;;5074567;28;20279;-67
2023/07/02 09:15:36;;;;;;;23.73;15.80;;;;;;;;;;5069747;28;20035;-68
2023/07/02 09:18:02;;;;;;;26.42;16.42;;;;;;;;;;5086330;28;20114;-66
2023/07/02 09:20:33;;;;;;;26.23;15.07;;;;;;;;;;5087057;28;20485;-67
2023/07/02 09:22:58;;;;;;;25.10;12.85;;;;;;;;;;5090015;28;20020;-67
2023/07/02 09:25:33;;;;;;;31.53;13.80;;;;;;;;;;5090247;28;20334;-67
2023/07/02 09:27:58;;;;;;;22.80;12.00;;;;;;;;;;5090687;28;20266;-67
2023/07/02 09:30:24;;;;;;;20.33;12.60;;;;;;;;;;5090343;28;20042;-68
2023/07/02 09:32:49;;;;;;;21.48;12.85;;;;;;;;;;5091189;28;20278;-67
2023/07/02 09:35:14;;;;;;;26.17;13.60;;;;;;;;;;5090402;28;20067;-68
2023/07/02 09:37:44;;;;;;;22.05;13.60;;;;;;;;;;5090692;28;20323;-68
2023/07/02 09:40:10;;;;;;;21.40;12.88;;;;;;;;;;5090564;28;20024;-67
2023/07/02 09:42:35;;;;;;;21.98;11.65;;;;;;;;;;5090805;28;20080;-68
2023/07/02 09:45:02;;;;;;;17.65;10.90;;;;;;;;;;5090243;28;20402;-67
2023/07/02 09:47:29;;;;;;;18.67;11.50;;;;;;;;;;5093248;28;20028;-67
2023/07/02 09:49:57;;;;;;;18.75;10.27;;;;;;;;;;5086692;28;20016;-64
2023/07/02 09:52:23;;;;;;;21.52;11.13;;;;;;;;;;5092788;28;20043;-67
2023/07/02 09:54:48;;;;;;;19.58;10.30;;;;;;;;;;5092573;28;20027;-65
2023/07/02 09:57:13;;;;;;;19.25;10.00;;;;;;;;;;5094110;28;20021;-64
2023/07/02 09:59:39;;;;;;;17.60;9.60;;;;;;;;;;5086730;28;20025;-64
2023/07/02 10:02:04;;;;;;;22.83;10.38;;;;;;;;;;5091865;28;20099;-64
2023/07/02 10:04:39;;;;;;;17.25;10.10;;;;;;;;;;5092919;28;20055;-67
2023/07/02 10:07:04;;;;;;;22.25;9.25;;;;;;;;;;5093321;28;20466;-66
2023/07/02 10:09:37;;;;;;;20.02;10.15;;;;;;;;;;5093259;28;20024;-66
2023/07/02 10:12:14;;;;;;;25.38;10.52;;;;;;;;;;5092458;28;20097;-67
2023/07/02 10:14:40;;;;;;;27.75;10.57;;;;;;;;;;5093566;28;20020;-67
2023/07/02 10:17:06;;;;;;;19.92;9.38;;;;;;;;;;5092948;28;20444;-67
2023/07/02 10:19:32;;;;;;;31.53;10.43;;;;;;;;;;5093370;28;20024;-66
2023/07/02 10:22:04;;;;;;;17.03;10.43;;;;;;;;;;5093554;28;20679;-66
2023/07/02 10:24:30;;;;;;;18.92;8.93;;;;;;;;;;5093799;28;20284;-68
2023/07/02 10:26:56;;;;;;;17.40;9.50;;;;;;;;;;5092620;28;20012;-67
2023/07/02 10:29:22;;;;;;;18.65;9.20;;;;;;;;;;5088997;28;20463;-67
2023/07/02 10:31:48;;;;;;;21.55;9.65;;;;;;;;;;5092519;28;20534;-66
2023/07/02 10:34:14;;;;;;;14.60;9.23;;;;;;;;;;5088407;28;20117;-66
2023/07/02 10:36:39;;;;;;;15.80;9.17;;;;;;;;;;5092809;28;20472;-66
2023/07/02 10:39:05;;;;;;;18.88;8.43;;;;;;;;;;5092406;28;20697;-66
2023/07/02 10:41:30;;;;;;;14.68;9.98;;;;;;;;;;5088011;28;20024;-67
2023/07/02 10:44:11;;;;;;;23.48;9.80;;;;;;;;;;5087073;28;20036;-66
2023/07/02 10:46:48;;;;;;;19.85;9.90;;;;;;;;;;5083743;28;20028;-64
2023/07/02 10:49:14;;;;;;;21.95;9.77;;;;;;;;;;5091915;28;20028;-67
2023/07/02 10:51:40;;;;;;;17.65;9.38;;;;;;;;;;5071935;28;20836;-67
2023/07/02 10:54:05;;;;;;;21.88;10.10;;;;;;;;;;5047430;28;20041;-67
2023/07/02 10:56:31;;;;;;;14.95;9.48;;;;;;;;;;5075227;28;20016;-67
2023/07/02 10:58:57;;;;;;;15.45;9.85;;;;;;;;;;5092229;28;20390;-69
2023/07/02 11:01:26;;;;;;;22.88;10.30;;;;;;;;;;5092546;28;20036;-68
2023/07/02 11:03:59;;;;;;;13.93;9.60;;;;;;;;;;5091764;28;20474;-67
2023/07/02 11:06:24;;;;;;;18.05;9.60;;;;;;;;;;5074316;28;20089;-68
2023/07/02 11:08:50;;;;;;;16.65;11.10;;;;;;;;;;5092717;28;20016;-67
2023/07/02 11:11:15;;;;;;;20.55;10.90;;;;;;;;;;5088168;28;20406;-67
2023/07/02 11:13:47;;;;;;;17.00;11.50;;;;;;;;;;5092735;28;20069;-67
2023/07/02 11:16:22;;;;;;;17.38;11.15;;;;;;;;;;5092219;28;20289;-65
2023/07/02 11:18:48;;;;;;;17.95;11.57;;;;;;;;;;5083833;28;20020;-67
2023/07/02 11:21:13;;;;;;;23.17;11.82;;;;;;;;;;5092986;28;20386;-67
2023/07/02 11:23:38;;;;;;;24.60;12.38;;;;;;;;;;5093058;28;20022;-69
2023/07/02 11:26:04;;;;;;;24.60;11.60;;;;;;;;;;5091700;28;20062;-67
2023/07/02 11:28:30;;;;;;;21.67;11.88;;;;;;;;;;5092143;28;20043;-67
2023/07/02 11:30:56;;;;;;;17.65;10.52;;;;;;;;;;5091529;28;20047;-67
2023/07/02 11:33:37;;;;;;;18.88;11.38;;;;;;;;;;5089103;28;20036;-67
2023/07/02 11:36:03;;;;;;;15.18;10.05;;;;;;;;;;5089750;28;20067;-66
2023/07/02 11:38:28;;;;;;;23.17;12.05;;;;;;;;;;5073362;28;20426;-67
2023/07/02 11:40:53;;;;;;;17.73;11.37;;;;;;;;;;5092146;28;20114;-67
2023/07/02 11:43:18;;;;;;;17.47;11.93;;;;;;;;;;5090522;28;20664;-67
2023/07/02 11:45:44;;;;;;;27.42;12.88;;;;;;;;;;5092103;28;20269;-66
2023/07/02 11:48:09;;;;;;;23.27;12.88;;;;;;;;;;5078918;28;20024;-67
2023/07/02 11:50:35;;;;;;;28.45;12.75;;;;;;;;;;5091617;28;20031;-66
2023/07/02 11:53:00;;;;;;;22.88;12.98;;;;;;;;;;5091468;28;20098;-68
2023/07/02 11:55:25;;;;;;;25.97;13.40;;;;;;;;;;5091237;28;20726;-67
2023/07/02 11:57:51;;;;;;;21.70;13.00;;;;;;;;;;5090735;28;20396;-65
2023/07/02 12:00:16;;;;;;;28.80;12.90;;;;;;;;;;5092213;28;20262;-66
2023/07/02 12:02:42;;;;;;;24.98;13.02;;;;;;;;;;5092121;28;20043;-68
2023/07/02 12:05:07;;;;;;;20.88;13.55;;;;;;;;;;5083930;28;20024;-68
2023/07/02 12:07:33;;;;;;;20.10;12.10;;;;;;;;;;5074419;28;20498;-67
2023/07/02 12:09:58;;;;;;;26.92;14.35;;;;;;;;;;5081338;28;20465;-67
2023/07/02 12:12:24;;;;;;;20.30;13.07;;;;;;;;;;5089443;28;20032;-67
2023/07/02 12:14:49;;;;;;;27.83;12.87;;;;;;;;;;5090739;28;20031;-67
2023/07/02 12:17:15;;;;;;;22.60;11.83;;;;;;;;;;5091875;28;20767;-67
2023/07/02 12:19:40;;;;;;;21.10;12.15;;;;;;;;;;5091030;28;20374;-65
2023/07/02 12:22:06;;;;;;;17.97;11.57;;;;;;;;;;5091874;28;20428;-67
2023/07/02 12:24:31;;;;;;;19.67;11.70;;;;;;;;;;5090736;28;20281;-66
2023/07/02 12:26:56;;;;;;;19.80;12.20;;;;;;;;;;5078494;28;20057;-66
2023/07/02 12:29:22;;;;;;;20.50;12.63;;;;;;;;;;5091699;28;20293;-67
2023/07/02 12:31:47;;;;;;;22.20;13.23;;;;;;;;;;5091166;28;20297;-66
2023/07/02 12:34:12;;;;;;;18.20;12.23;;;;;;;;;;5083169;28;20035;-68
2023/07/02 12:36:37;;;;;;;21.45;13.02;;;;;;;;;;5090585;28;20467;-67
2023/07/02 12:39:03;;;;;;;22.87;13.03;;;;;;;;;;5091515;28;20077;-66
2023/07/02 12:41:29;;;;;;;22.20;12.98;;;;;;;;;;5087071;28;20730;-68
2023/07/02 12:43:54;;;;;;;22.08;12.00;;;;;;;;;;5082597;28;20027;-67
2023/07/02 12:46:19;;;;;;;26.50;13.75;;;;;;;;;;5090553;28;20020;-67
2023/07/02 12:48:45;;;;;;;21.03;12.93;;;;;;;;;;5091281;28;20200;-68
2023/07/02 12:51:10;;;;;;;20.58;12.32;;;;;;;;;;5089870;28;20317;-68
2023/07/02 12:53:35;;;;;;;28.30;13.15;;;;;;;;;;5090223;28;20420;-65
2023/07/02 12:56:01;;;;;;;23.63;13.80;;;;;;;;;;5090409;28;20035;-64
2023/07/02 12:58:26;;;;;;;20.50;13.40;;;;;;;;;;5091508;28;20336;-65
2023/07/02 13:00:51;;;;;;;25.57;14.37;;;;;;;;;;5086061;28;20036;-66
2023/07/02 13:03:17;;;;;;;22.80;12.98;;;;;;;;;;5083563;28;20336;-66
2023/07/02 13:05:42;;;;;;;22.67;13.20;;;;;;;;;;5090190;28;20020;-65
2023/07/02 13:08:07;;;;;;;23.77;14.00;;;;;;;;;;5090777;28;20020;-66
2023/07/02 13:10:33;;;;;;;19.13;12.32;;;;;;;;;;5090500;28;20302;-65
2023/07/02 13:12:58;;;;;;;16.27;11.60;;;;;;;;;;5091205;28;20479;-66
2023/07/02 13:15:24;;;;;;;20.17;13.18;;;;;;;;;;5091012;28;20020;-67
2023/07/02 13:17:49;;;;;;;26.05;11.65;;;;;;;;;;5091034;28;20024;-65
2023/07/02 13:20:14;;;;;;;19.83;12.43;;;;;;;;;;5090375;28;20056;-65
2023/07/02 13:22:40;;;;;;;21.42;12.50;;;;;;;;;;5093274;28;20023;-65
2023/07/02 13:25:05;;;;;;;18.40;12.82;;;;;;;;;;5092696;28;20025;-65
2023/07/02 13:27:31;;;;;;;21.05;12.55;;;;;;;;;;5093623;28;20443;-66
2023/07/02 13:29:56;;;;;;;17.30;12.10;;;;;;;;;;5093765;28;20032;-65
2023/07/02 13:32:21;;;;;;;19.67;12.82;;;;;;;;;;5094432;28;20270;-66
2023/07/02 13:34:46;;;;;;;24.33;12.57;;;;;;;;;;5079817;28;20115;-66
2023/07/02 13:37:14;;;;;;;17.23;11.50;;;;;;;;;;5090177;28;20270;-67
2023/07/02 13:39:39;;;;;;;17.52;11.95;;;;;;;;;;5094358;28;20360;-65
2023/07/02 13:42:04;;;;;;;20.20;11.83;;;;;;;;;;5085166;28;20419;-66
2023/07/02 13:44:30;;;;;;;21.85;12.68;;;;;;;;;;5086440;28;20334;-69
2023/07/02 13:46:55;;;;;;;23.33;12.35;;;;;;;;;;5093628;28;20428;-66
2023/07/02 13:49:21;;;;;;;20.60;12.07;;;;;;;;;;5086709;28;20024;-66
2023/07/02 13:51:46;;;;;;;21.80;12.93;;;;;;;;;;5093661;28;20044;-66
2023/07/02 13:54:12;;;;;;;16.83;11.70;;;;;;;;;;5093275;28;20031;-68
2023/07/02 13:56:37;;;;;;;22.08;13.48;;;;;;;;;;5091639;28;20036;-67
2023/07/02 13:59:03;;;;;;;22.90;13.13;;;;;;;;;;5091957;28;20057;-67
2023/07/02 14:01:28;;;;;;;28.38;12.75;;;;;;;;;;5094592;28;20602;-68
2023/07/02 14:03:54;;;;;;;24.55;11.68;;;;;;;;;;5087804;28;20770;-67
2023/07/02 14:06:19;;;;;;;22.98;13.07;;;;;;;;;;5046701;28;20106;-66
2023/07/02 14:08:44;;;;;;;22.63;11.43;;;;;;;;;;5050356;28;20031;-65
2023/07/02 14:11:10;;;;;;;21.57;12.23;;;;;;;;;;5046261;28;20158;-67